Pagrindinis puslapis
METAR-TAF:

METAR-TAF

Oro uostai :

Pskovas, Rusija

platuma: 57-47-06N, ilguma: 028-23-54E, Aukštis: 47 m

Dabartinis oras

Ataskaita buvo paskelbta 12 minutes, ne 21:00 UTC
Vėjas 6 kt iš Šiaurės
Temperatūra 7°C
Drėgmė 33%
Slėgis 1011 hPa
Matomumas 10 km arba daugiau
nėra debesų žemiau 1500 m ir nėra kamuolinių lietaus debesų

METAR: ULOO 222100Z 01003MPS CAVOK 07/M08 Q1011 R01/090060 NOSIG RMK QFE754

Laikas: 00:12 (21:12 UTC)

Prognozė

Ataskaita buvo paskelbta 1 valandą ir 19 minutes, ne 19:53 UTC
Prognozė galioja nuo 22 metu 21 UTC su 23 metu 06 UTC
Vėjas 6 kt iš Šiaurės
Matomumas 10 km arba daugiau
nėra debesų žemiau 1500 m ir nėra kamuolinių lietaus debesų

TAF: ULOO 221953Z 2221/2306 36003MPS CAVOK

Orai ataskaitas ir orų prognozės (METAR, TAF).

turimą stotys yra geltonos ir raudonos taškus žemėlapyje.

Perkelti pele per norėdami pamatyti stoties vardą.

Tada spustelėkite, norėdami matyti oro stebėjimo ir prognozės.

Norėdami pakeisti žemėlapį: spustelėkite ant žalios mygtukų su juodo kryžiaus žemyn,; žalią mygtuką su brūkšneliu, jei norite nutolinti; arba žalių rodyklių gretimoms žemėlapius.


METAR-TAF: